createdAt,value
2023-01-23T00:02:16.581Z,7.40
2023-01-23T00:04:46.714Z,9.45
2023-01-23T00:07:16.738Z,9.77
2023-01-23T00:09:47.277Z,10.25
2023-01-23T00:12:17.300Z,9.15
2023-01-23T00:14:47.577Z,10.73
2023-01-23T00:17:20.233Z,7.57
2023-01-23T00:19:50.276Z,7.18
2023-01-23T00:22:20.295Z,7.05
2023-01-23T00:24:50.571Z,8.25
2023-01-23T00:27:20.625Z,6.72
2023-01-23T00:29:50.971Z,7.47
2023-01-23T00:32:23.711Z,9.23
2023-01-23T00:34:53.997Z,9.00
2023-01-23T00:37:24.028Z,7.38
2023-01-23T00:39:54.206Z,7.25
2023-01-23T00:42:24.267Z,7.32
2023-01-23T00:44:54.321Z,9.07
2023-01-23T00:47:26.953Z,8.75
2023-01-23T00:49:58.921Z,7.70
2023-01-23T00:52:30.389Z,9.88
2023-01-23T00:55:00.667Z,10.65
2023-01-23T00:57:31.355Z,8.82
2023-01-23T01:00:01.480Z,10.55
2023-01-23T01:02:34.140Z,9.50
2023-01-23T01:05:04.470Z,10.13
2023-01-23T01:07:34.486Z,9.25
2023-01-23T01:10:04.653Z,8.65
2023-01-23T01:12:34.865Z,7.82
2023-01-23T01:15:05.277Z,9.15
2023-01-23T01:17:38.299Z,10.05
2023-01-23T01:20:10.474Z,9.93
2023-01-23T01:22:40.496Z,6.10
2023-01-23T01:25:11.544Z,9.13
2023-01-23T01:27:41.564Z,8.98
2023-01-23T01:30:12.790Z,9.80
2023-01-23T01:32:46.643Z,9.40
2023-01-23T01:35:17.009Z,7.85
2023-01-23T01:37:47.060Z,7.90
2023-01-23T01:40:19.711Z,9.40
2023-01-23T01:42:52.715Z,9.45
2023-01-23T01:45:52.731Z,7.63
2023-01-23T01:48:27.841Z,7.40
2023-01-23T01:50:58.148Z,7.68
2023-01-23T01:53:31.163Z,7.18
2023-01-23T01:56:01.667Z,8.85
2023-01-23T01:58:32.265Z,8.45
2023-01-23T02:01:02.445Z,9.23
2023-01-23T02:03:35.102Z,9.75
2023-01-23T02:06:05.635Z,8.98
2023-01-23T02:08:41.902Z,7.95
2023-01-23T02:11:12.144Z,8.55
2023-01-23T02:13:43.218Z,7.00
2023-01-23T02:16:16.088Z,6.95
2023-01-23T02:18:53.885Z,8.65
2023-01-23T02:21:25.890Z,9.65
2023-01-23T02:24:07.041Z,9.48
2023-01-23T02:26:44.359Z,9.52
2023-01-23T02:29:15.206Z,9.25
2023-01-23T02:31:46.229Z,6.57
2023-01-23T02:34:17.652Z,7.28
2023-01-23T02:36:51.293Z,8.85
2023-01-23T02:39:22.539Z,7.05
2023-01-23T02:41:56.255Z,8.95
2023-01-23T02:44:29.062Z,8.23
2023-01-23T02:47:01.101Z,10.40
2023-01-23T02:49:31.861Z,6.90
2023-01-23T02:52:02.074Z,6.47
2023-01-23T02:54:32.078Z,8.35
2023-01-23T02:57:05.301Z,9.60
2023-01-23T02:59:47.685Z,8.75
2023-01-23T03:02:18.059Z,8.68
2023-01-23T03:04:48.164Z,6.75
2023-01-23T03:07:18.658Z,7.65
2023-01-23T03:09:48.925Z,7.05
2023-01-23T03:12:21.797Z,8.80
2023-01-23T03:14:54.934Z,7.47
2023-01-23T03:17:25.620Z,7.30
2023-01-23T03:19:55.725Z,9.57
2023-01-23T03:22:26.632Z,7.57
2023-01-23T03:24:58.103Z,8.98
2023-01-23T03:27:32.409Z,7.68
2023-01-23T03:30:15.009Z,7.70
2023-01-23T03:32:45.713Z,10.40
2023-01-23T03:35:17.007Z,10.07
2023-01-23T03:37:47.537Z,9.15
2023-01-23T03:40:47.886Z,10.00
2023-01-23T03:43:20.511Z,8.07
2023-01-23T03:45:50.622Z,8.55
2023-01-23T03:48:20.638Z,11.75
2023-01-23T03:50:50.760Z,10.27
2023-01-23T03:53:21.498Z,9.85
2023-01-23T03:55:51.712Z,7.57
2023-01-23T03:58:24.363Z,8.38
2023-01-23T04:00:54.383Z,10.90
2023-01-23T04:03:24.471Z,10.20
2023-01-23T04:05:59.955Z,10.68
2023-01-23T04:08:30.218Z,8.05
2023-01-23T04:11:07.907Z,8.50
2023-01-23T04:13:41.044Z,10.35
2023-01-23T04:16:11.686Z,7.60
2023-01-23T04:18:41.949Z,10.18
2023-01-23T04:21:12.027Z,8.80
2023-01-23T04:23:42.091Z,8.60
2023-01-23T04:26:12.126Z,11.25
2023-01-23T04:28:44.804Z,8.95
2023-01-23T04:31:15.244Z,10.30
2023-01-23T04:33:45.373Z,9.40
2023-01-23T04:36:16.224Z,10.55
2023-01-23T04:38:46.296Z,8.15
2023-01-23T04:41:21.124Z,12.05
2023-01-23T04:43:53.818Z,10.95
2023-01-23T04:46:23.931Z,9.13
2023-01-23T04:48:55.000Z,7.57
2023-01-23T04:51:25.414Z,10.18
2023-01-23T04:53:55.475Z,9.68
2023-01-23T04:56:25.500Z,9.52
2023-01-23T04:58:58.389Z,7.13
2023-01-23T05:01:28.412Z,10.90
2023-01-23T05:03:58.703Z,8.05
2023-01-23T05:06:28.968Z,9.07
2023-01-23T05:08:59.284Z,8.65
2023-01-23T05:11:29.576Z,7.65
2023-01-23T05:14:02.257Z,7.50
2023-01-23T05:16:32.277Z,6.90
2023-01-23T05:19:02.543Z,8.30
2023-01-23T05:21:32.782Z,10.00
2023-01-23T05:24:02.854Z,8.20
2023-01-23T05:26:33.090Z,7.35
2023-01-23T05:29:05.947Z,8.15
2023-01-23T05:31:36.254Z,9.00
2023-01-23T05:34:06.460Z,9.88
2023-01-23T05:36:36.508Z,7.72
2023-01-23T05:39:06.783Z,10.35
2023-01-23T05:41:36.787Z,7.50
2023-01-23T05:44:09.567Z,7.72
2023-01-23T05:46:39.577Z,4.78
2023-01-23T05:49:09.718Z,8.68
2023-01-23T05:51:39.801Z,9.00
2023-01-23T05:54:09.873Z,6.53
2023-01-23T05:56:40.094Z,7.07
2023-01-23T05:59:12.799Z,6.72
2023-01-23T06:01:42.839Z,8.80
2023-01-23T06:04:13.796Z,8.23
2023-01-23T06:06:43.862Z,7.18
2023-01-23T06:09:14.237Z,7.78
2023-01-23T06:11:44.240Z,8.55
2023-01-23T06:14:16.956Z,7.97
2023-01-23T06:16:46.956Z,7.70
2023-01-23T06:19:17.511Z,8.63
2023-01-23T06:21:47.733Z,7.47
2023-01-23T06:24:17.805Z,8.07
2023-01-23T06:26:48.236Z,8.13
2023-01-23T06:29:21.063Z,8.75
2023-01-23T06:31:51.196Z,9.85
2023-01-23T06:34:21.530Z,8.85
2023-01-23T06:36:51.628Z,9.02
2023-01-23T06:39:21.978Z,10.85
2023-01-23T06:41:52.112Z,8.07
2023-01-23T06:44:24.950Z,8.82
2023-01-23T06:46:56.221Z,8.90
2023-01-23T06:49:26.287Z,11.40
2023-01-23T06:51:56.303Z,10.68
2023-01-23T06:54:26.373Z,10.50
2023-01-23T06:56:56.391Z,10.32
2023-01-23T06:59:29.027Z,11.18
2023-01-23T07:01:59.366Z,10.40
2023-01-23T07:04:29.581Z,9.93
2023-01-23T07:06:59.566Z,11.52
2023-01-23T07:09:29.683Z,11.27
2023-01-23T07:11:59.802Z,7.57
2023-01-23T07:14:32.565Z,9.15
2023-01-23T07:17:02.576Z,11.40
2023-01-23T07:19:32.691Z,9.45
2023-01-23T07:22:04.015Z,7.88
2023-01-23T07:24:34.163Z,8.07
2023-01-23T07:27:04.194Z,10.13
2023-01-23T07:29:36.917Z,8.18
2023-01-23T07:32:09.341Z,11.43
2023-01-23T07:34:40.932Z,8.75
2023-01-23T07:37:11.221Z,10.25
2023-01-23T07:39:41.431Z,10.10
2023-01-23T07:42:11.441Z,10.60
2023-01-23T07:44:44.121Z,9.82
2023-01-23T07:47:14.421Z,11.57
2023-01-23T07:49:44.723Z,9.13
2023-01-23T07:52:14.831Z,10.25
2023-01-23T07:54:45.029Z,7.70
2023-01-23T07:57:15.068Z,10.57
2023-01-23T07:59:47.743Z,9.60
2023-01-23T08:02:17.763Z,8.48
2023-01-23T08:04:47.841Z,9.88
2023-01-23T08:07:18.154Z,9.55
2023-01-23T08:09:48.503Z,9.05
2023-01-23T08:12:18.524Z,10.73
2023-01-23T08:14:51.440Z,11.20
2023-01-23T08:17:21.723Z,8.77
2023-01-23T08:19:52.471Z,10.95
2023-01-23T08:22:22.548Z,10.63
2023-01-23T08:24:52.783Z,7.72
2023-01-23T08:27:24.033Z,11.23
2023-01-23T08:29:56.792Z,8.15
2023-01-23T08:32:26.815Z,11.15
2023-01-23T08:34:57.095Z,12.95
2023-01-23T08:37:27.133Z,11.20
2023-01-23T08:39:57.536Z,11.50
2023-01-23T08:42:27.546Z,9.27
2023-01-23T08:45:00.356Z,10.18
2023-01-23T08:47:30.796Z,9.90
2023-01-23T08:50:00.946Z,8.82
2023-01-23T08:52:31.291Z,10.05
2023-01-23T08:55:01.457Z,8.70
2023-01-23T08:57:31.499Z,9.30
2023-01-23T09:00:04.254Z,10.73
2023-01-23T09:02:34.284Z,8.45
2023-01-23T09:05:04.905Z,9.50
2023-01-23T09:07:36.551Z,11.15
2023-01-23T09:10:07.109Z,10.95
2023-01-23T09:12:37.315Z,11.70
2023-01-23T09:15:11.512Z,11.20
2023-01-23T09:17:41.667Z,9.65
2023-01-23T09:20:13.729Z,11.23
2023-01-23T09:22:43.969Z,9.90
2023-01-23T09:25:14.973Z,10.95
2023-01-23T09:27:45.001Z,11.82
2023-01-23T09:30:21.293Z,10.45
2023-01-23T09:32:51.700Z,11.13
2023-01-23T09:35:23.442Z,11.60
2023-01-23T09:38:04.435Z,11.50
2023-01-23T09:40:37.545Z,10.88
2023-01-23T09:43:16.701Z,12.15
2023-01-23T09:45:59.513Z,12.00
2023-01-23T09:48:32.900Z,10.13
2023-01-23T09:51:09.213Z,12.15
2023-01-23T09:53:42.672Z,12.00
2023-01-23T09:56:27.405Z,10.65
2023-01-23T09:59:05.437Z,10.07
2023-01-23T10:01:39.261Z,10.55
2023-01-23T10:04:09.871Z,7.25
2023-01-23T10:07:00.937Z,9.95
2023-01-23T10:09:47.060Z,11.13
2023-01-23T10:12:29.881Z,11.40
2023-01-23T10:15:27.562Z,10.02
2023-01-23T10:18:12.305Z,10.75
2023-01-23T10:21:02.664Z,11.48
2023-01-23T10:23:48.364Z,10.25
2023-01-23T10:26:22.962Z,10.10
2023-01-23T10:28:57.647Z,8.98
2023-01-23T10:31:36.492Z,9.55
2023-01-23T10:34:19.615Z,11.48
2023-01-23T10:37:03.917Z,11.75
2023-01-23T10:39:42.324Z,10.90
2023-01-23T10:42:15.317Z,10.88
2023-01-23T10:44:45.355Z,10.95
2023-01-23T10:47:23.737Z,10.13
2023-01-23T10:49:56.405Z,11.45
2023-01-23T10:52:35.819Z,7.18
2023-01-23T10:55:06.807Z,9.52
2023-01-23T10:57:49.002Z,11.13
2023-01-23T11:00:27.612Z,8.80
2023-01-23T11:02:58.089Z,10.07
2023-01-23T11:05:52.532Z,10.85
2023-01-23T11:08:28.524Z,10.05
2023-01-23T11:11:26.545Z,10.85
2023-01-23T11:14:09.299Z,6.40
2023-01-23T11:16:39.715Z,9.38
2023-01-23T11:19:19.247Z,9.25
2023-01-23T11:22:00.983Z,9.13
2023-01-23T11:24:41.507Z,11.68
2023-01-23T11:27:24.455Z,10.52
2023-01-23T11:30:20.565Z,9.63
2023-01-23T11:32:56.826Z,8.63
2023-01-23T11:35:37.876Z,7.25
2023-01-23T11:38:17.978Z,9.68
2023-01-23T11:40:50.883Z,10.05
2023-01-23T11:43:21.422Z,7.38
2023-01-23T11:46:16.034Z,10.38
2023-01-23T11:48:59.442Z,9.65
2023-01-23T11:51:35.853Z,7.05
2023-01-23T11:54:29.111Z,9.90
2023-01-23T11:57:11.009Z,6.55
2023-01-23T12:00:06.806Z,8.85
2023-01-23T12:03:12.974Z,9.05
2023-01-23T12:08:57.805Z,10.85
2023-01-23T12:11:39.955Z,8.88
2023-01-23T12:14:18.987Z,9.02
2023-01-23T12:17:12.235Z,9.00
2023-01-23T12:20:05.906Z,7.60
2023-01-23T12:22:49.302Z,10.35
2023-01-23T12:25:31.016Z,8.77
2023-01-23T12:28:08.709Z,8.30
2023-01-23T12:31:06.543Z,9.73
2023-01-23T12:36:44.168Z,6.25
2023-01-23T12:39:41.418Z,7.55
2023-01-23T12:42:17.001Z,7.07
2023-01-23T12:44:58.175Z,9.80
2023-01-23T12:47:34.347Z,7.85
2023-01-23T12:50:08.117Z,9.73
2023-01-23T12:52:42.929Z,7.88
2023-01-23T12:55:20.853Z,8.10
2023-01-23T12:58:00.050Z,9.65
2023-01-23T13:01:10.023Z,10.23
2023-01-23T13:03:54.354Z,11.73
2023-01-23T13:06:37.447Z,7.75
2023-01-23T13:09:18.449Z,11.00
2023-01-23T13:11:58.860Z,8.75
2023-01-23T13:15:10.581Z,7.50
2023-01-23T13:17:47.082Z,10.48
2023-01-23T13:20:41.455Z,10.35
2023-01-23T13:23:29.371Z,8.88
2023-01-23T13:26:35.181Z,10.38
2023-01-23T13:29:07.730Z,9.90
2023-01-23T13:31:46.616Z,6.70
2023-01-23T13:34:41.790Z,10.02
2023-01-23T13:37:52.186Z,9.52
2023-01-23T13:40:25.102Z,10.80
2023-01-23T13:42:55.285Z,8.20
2023-01-23T13:45:28.424Z,7.70
2023-01-23T14:20:31.107Z,8.40
2023-01-23T14:23:01.267Z,7.55
2023-01-23T14:25:31.540Z,7.78
2023-01-23T14:28:10.165Z,8.75
2023-01-23T14:30:40.241Z,7.57
2023-01-23T14:33:14.621Z,8.02
2023-01-23T14:35:46.605Z,8.35
2023-01-23T14:38:23.053Z,6.40
2023-01-23T14:40:53.162Z,6.90
2023-01-23T14:43:28.193Z,6.93
2023-01-23T14:46:04.978Z,7.30
2023-01-23T14:48:40.507Z,4.05
2023-01-23T14:51:19.806Z,6.40
2023-01-23T14:53:57.389Z,6.60
2023-01-23T14:56:30.639Z,5.30
2023-01-23T14:59:06.078Z,6.22
2023-01-23T15:01:37.188Z,5.68
2023-01-23T15:04:22.725Z,6.72
2023-01-23T15:06:55.326Z,5.75
2023-01-23T15:09:30.923Z,5.90
2023-01-23T15:12:08.421Z,7.70
2023-01-23T15:14:42.671Z,5.57
2023-01-23T15:17:19.810Z,7.38
2023-01-23T15:19:55.388Z,6.20
2023-01-23T15:22:29.881Z,7.78
2023-01-23T15:25:00.330Z,5.82
2023-01-23T15:27:35.199Z,6.43
2023-01-23T15:30:39.733Z,7.28
2023-01-23T15:33:28.659Z,6.50
2023-01-23T15:36:05.958Z,6.88
2023-01-23T15:38:36.576Z,8.02
2023-01-23T15:41:12.986Z,6.10
2023-01-23T15:43:43.092Z,4.57
2023-01-23T15:46:16.205Z,5.78
2023-01-23T15:48:46.453Z,5.93
2023-01-23T15:51:16.687Z,7.50
2023-01-23T15:53:46.893Z,6.32
2023-01-23T15:56:30.097Z,5.43
2023-01-23T15:59:02.599Z,5.97
2023-01-23T16:01:35.476Z,4.20
2023-01-23T16:04:05.536Z,6.93
2023-01-23T16:06:36.278Z,6.53
2023-01-23T16:09:07.694Z,5.18
2023-01-23T16:11:38.940Z,5.72
2023-01-23T16:14:09.254Z,6.70
2023-01-23T16:16:42.094Z,5.47
2023-01-23T16:19:12.289Z,5.82
2023-01-23T16:21:45.817Z,7.07
2023-01-23T16:24:23.064Z,7.20
2023-01-23T16:26:56.667Z,7.20
2023-01-23T16:29:30.937Z,5.90
2023-01-23T16:32:05.335Z,5.85
2023-01-23T16:34:35.566Z,11.60
2023-01-23T16:37:05.937Z,6.28
2023-01-23T16:39:36.839Z,5.55
2023-01-23T16:42:07.794Z,4.40
2023-01-23T16:44:37.921Z,4.68
2023-01-23T16:47:10.594Z,6.20
2023-01-23T16:49:51.531Z,4.57
2023-01-23T16:52:26.626Z,6.20
2023-01-23T16:54:58.205Z,6.57
2023-01-23T16:57:28.673Z,4.25
2023-01-23T16:59:58.994Z,7.07
2023-01-23T17:02:33.586Z,5.03
2023-01-23T17:05:04.023Z,5.80
2023-01-23T17:07:34.096Z,5.57
2023-01-23T17:10:04.196Z,6.53
2023-01-23T17:12:38.469Z,6.78
2023-01-23T17:15:09.536Z,6.00
2023-01-23T17:17:42.354Z,5.40
2023-01-23T17:20:16.271Z,7.25
2023-01-23T17:22:46.851Z,3.50
2023-01-23T17:25:18.618Z,6.00
2023-01-23T17:28:06.921Z,5.65
2023-01-23T17:30:39.862Z,3.67
2023-01-23T17:33:20.315Z,5.93
2023-01-23T17:35:51.354Z,7.25
2023-01-23T17:38:22.729Z,5.55
2023-01-23T17:43:23.970Z,6.43
2023-01-23T17:45:55.556Z,7.10
2023-01-23T17:48:31.894Z,6.78
2023-01-23T17:51:02.339Z,7.25
2023-01-23T17:53:32.488Z,4.30
2023-01-23T17:56:02.847Z,5.85
2023-01-23T17:58:32.930Z,3.75
2023-01-23T18:01:03.053Z,4.03
2023-01-23T18:03:35.916Z,7.82
2023-01-23T18:06:06.199Z,7.25
2023-01-23T18:08:40.217Z,4.55
2023-01-23T18:11:19.170Z,6.88
2023-01-23T18:14:15.661Z,5.93
2023-01-23T18:16:50.002Z,6.82
2023-01-23T18:19:24.781Z,4.88
2023-01-23T18:21:57.102Z,5.05
2023-01-23T18:24:30.448Z,4.55
2023-01-23T18:27:02.743Z,7.07
2023-01-23T18:29:45.916Z,7.90
2023-01-23T18:32:46.606Z,7.85
2023-01-23T18:35:32.329Z,6.40
2023-01-23T18:38:13.490Z,6.43
2023-01-23T18:40:51.162Z,7.20
2023-01-23T18:43:39.924Z,6.80
2023-01-23T18:46:15.553Z,6.28
2023-01-23T18:48:47.254Z,5.63
2023-01-23T18:51:37.360Z,7.78
2023-01-23T18:54:23.297Z,5.38
2023-01-23T18:57:08.415Z,6.80
2023-01-23T18:59:49.562Z,6.28
2023-01-23T19:02:29.342Z,6.53
2023-01-23T19:05:22.012Z,5.10
2023-01-23T19:07:55.365Z,6.35
2023-01-23T19:10:29.177Z,7.15
2023-01-23T19:13:14.354Z,5.88
2023-01-23T19:15:52.711Z,7.45
2023-01-23T19:18:45.859Z,7.10
2023-01-23T19:21:23.791Z,6.63
2023-01-23T19:24:02.683Z,9.27
2023-01-23T19:26:35.027Z,7.95
2023-01-23T19:29:20.381Z,8.10
2023-01-23T19:32:05.118Z,7.82
2023-01-23T19:34:35.940Z,7.55
2023-01-23T19:37:07.421Z,7.38
2023-01-23T19:39:40.104Z,8.73
2023-01-23T19:42:16.994Z,7.85
2023-01-23T19:44:47.345Z,5.82
2023-01-23T19:47:17.525Z,7.20
2023-01-23T19:49:47.670Z,8.35
2023-01-23T19:52:19.224Z,7.53
2023-01-23T19:54:51.997Z,7.90
2023-01-23T19:57:22.085Z,6.90
2023-01-23T19:59:52.119Z,8.02
2023-01-23T20:02:25.500Z,7.03
2023-01-23T20:04:57.860Z,7.82
2023-01-23T20:07:27.929Z,5.93
2023-01-23T20:10:00.680Z,7.57
2023-01-23T20:12:30.874Z,7.03
2023-01-23T20:15:01.026Z,7.72
2023-01-23T20:17:31.110Z,6.93
2023-01-23T20:20:01.186Z,6.35
2023-01-23T20:22:32.667Z,8.45
2023-01-23T20:25:05.569Z,6.28
2023-01-23T20:28:25.370Z,7.30
2023-01-23T20:34:16.567Z,8.32
2023-01-23T20:36:46.672Z,7.95
2023-01-23T20:39:17.151Z,5.75
2023-01-23T20:41:49.853Z,5.28
2023-01-23T20:44:19.916Z,6.72
2023-01-23T20:46:49.990Z,8.02
2023-01-23T20:49:20.156Z,7.40
2023-01-23T20:51:50.228Z,8.63
2023-01-23T20:54:18.211Z,8.57
2023-01-23T20:56:50.901Z,8.77
2023-01-23T20:59:23.155Z,4.32
2023-01-23T21:02:05.849Z,5.53
2023-01-23T21:04:37.273Z,7.65
2023-01-23T21:07:08.139Z,6.63
2023-01-23T21:09:38.303Z,6.03
2023-01-23T21:12:11.228Z,8.50
2023-01-23T21:14:41.301Z,7.10
2023-01-23T21:17:11.481Z,7.53
2023-01-23T21:19:41.972Z,8.73
2023-01-23T21:22:12.225Z,8.98
2023-01-23T21:24:42.570Z,7.18
2023-01-23T21:27:16.141Z,7.82
2023-01-23T21:29:46.401Z,8.77
2023-01-23T21:32:16.497Z,6.95
2023-01-23T21:34:46.496Z,7.55
2023-01-23T21:37:19.146Z,7.57
2023-01-23T21:39:49.431Z,7.47
2023-01-23T21:42:22.162Z,7.40
2023-01-23T21:44:55.168Z,6.32
2023-01-23T21:47:25.310Z,8.68
2023-01-23T21:49:55.595Z,6.35
2023-01-23T21:52:25.655Z,7.28
2023-01-23T21:54:56.856Z,8.05
2023-01-23T21:57:29.533Z,6.70
2023-01-23T22:00:13.763Z,6.90
2023-01-23T22:02:44.417Z,6.60
2023-01-23T22:05:14.516Z,6.72
2023-01-23T22:07:44.715Z,6.15
2023-01-23T22:10:14.997Z,7.00
2023-01-23T22:12:47.703Z,7.20
2023-01-23T22:15:18.067Z,8.27
2023-01-23T22:17:48.580Z,6.90
2023-01-23T22:20:18.942Z,6.60
2023-01-23T22:22:49.139Z,6.95
2023-01-23T22:25:19.576Z,8.38
2023-01-23T22:27:52.614Z,8.23
2023-01-23T22:30:22.996Z,6.20
2023-01-23T22:32:53.085Z,7.20
2023-01-23T22:35:23.551Z,8.15
2023-01-23T22:37:53.772Z,6.05
2023-01-23T22:40:24.019Z,7.15
2023-01-23T22:42:56.651Z,7.43
2023-01-23T22:45:26.716Z,7.35
2023-01-23T22:47:56.787Z,6.75
2023-01-23T22:50:27.524Z,7.20
2023-01-23T22:52:57.714Z,6.80
2023-01-23T22:55:27.761Z,6.95
2023-01-23T22:58:00.414Z,4.22
2023-01-23T23:00:30.519Z,5.05
2023-01-23T23:03:00.603Z,6.38
2023-01-23T23:05:30.665Z,4.97
2023-01-23T23:08:00.716Z,7.78
2023-01-23T23:10:30.937Z,7.55
2023-01-23T23:13:03.606Z,7.43
2023-01-23T23:15:33.578Z,7.18
2023-01-23T23:18:03.687Z,5.80
2023-01-23T23:20:33.982Z,8.10
2023-01-23T23:23:04.516Z,8.38
2023-01-23T23:25:34.580Z,7.57
2023-01-23T23:28:08.525Z,6.10
2023-01-23T23:30:38.584Z,7.97
2023-01-23T23:33:09.197Z,7.43
2023-01-23T23:35:39.261Z,6.55
2023-01-23T23:38:09.363Z,5.45
2023-01-23T23:40:39.377Z,7.10
2023-01-23T23:43:12.303Z,6.43
2023-01-23T23:45:42.378Z,7.35
2023-01-23T23:48:12.567Z,6.82
2023-01-23T23:50:42.597Z,6.93
2023-01-23T23:53:12.880Z,4.90
2023-01-23T23:55:42.962Z,7.00
2023-01-23T23:58:16.206Z,6.68
